Time;durP1;ratioP1;P1;durP2;ratioP2;P2;SDS_P1;SDS_P2;PMS_P1;PMS_P2;Temp;Humidity;BMP_temperature;BMP_pressure;BME280_temperature;BME280_humidity;BME280_pressure;Samples;Min_cycle;Max_cycle;Signal;HPM_P1;HPM_P2
2023/05/20 00:01:46;;;;;;;7.82;3.50;;;;;;;14.51;56.67;102268.69;5016385;28;20026;-88
2023/05/20 00:04:11;;;;;;;10.50;3.30;;;;;;;14.48;56.89;102267.75;5033813;28;20492;-88
2023/05/20 00:06:39;;;;;;;12.50;3.45;;;;;;;14.54;56.68;102273.19;5016935;28;20032;-88
2023/05/20 00:09:07;;;;;;;8.07;3.45;;;;;;;14.58;56.63;102272.38;5016586;28;20045;-88
2023/05/20 00:11:32;;;;;;;9.25;3.33;;;;;;;14.42;57.63;102263.19;5034180;28;20484;-88
2023/05/20 00:13:57;;;;;;;8.88;3.50;;;;;;;14.40;57.53;102272.91;5016100;28;20045;-87
2023/05/20 00:16:23;;;;;;;10.40;3.75;;;;;;;14.38;57.79;102268.44;4999924;28;20033;-87
2023/05/20 00:18:48;;;;;;;7.35;3.40;;;;;;;14.40;57.91;102275.59;5033921;28;20029;-87
2023/05/20 00:21:13;;;;;;;10.40;3.72;;;;;;;14.31;58.07;102279.84;5000026;28;20041;-88
2023/05/20 00:23:39;;;;;;;13.50;3.47;;;;;;;14.32;57.82;102277.19;5033656;28;20030;-87
2023/05/20 00:26:04;;;;;;;6.68;3.40;;;;;;;14.31;58.60;102280.75;4999733;28;20034;-87
2023/05/20 00:28:30;;;;;;;9.13;3.53;;;;;;;14.25;58.40;102280.59;5016437;28;20041;-87
2023/05/20 00:30:55;;;;;;;7.07;3.70;;;;;;;14.26;58.66;102282.38;4999845;28;20042;-87
2023/05/20 00:33:20;;;;;;;6.78;3.17;;;;;;;14.24;58.56;102277.06;5015865;28;20120;-87
2023/05/20 00:35:46;;;;;;;10.65;3.60;;;;;;;14.20;58.83;102275.22;5015921;28;20041;-87
2023/05/20 00:38:11;;;;;;;8.63;3.45;;;;;;;14.15;59.16;102278.66;5016071;28;20078;-87
2023/05/20 00:40:36;;;;;;;8.95;3.78;;;;;;;14.08;59.18;102261.69;5015849;28;20427;-87
2023/05/20 00:43:02;;;;;;;11.60;3.67;;;;;;;14.06;59.56;102267.84;5015808;28;20183;-87
2023/05/20 00:45:31;;;;;;;11.27;3.75;;;;;;;14.03;59.90;102272.22;5015617;28;20474;-87
2023/05/20 00:47:58;;;;;;;9.88;3.55;;;;;;;13.96;59.82;102272.06;5033179;28;20393;-87
2023/05/20 00:50:24;;;;;;;11.07;3.40;;;;;;;13.93;60.18;102270.25;5016343;28;20136;-87
2023/05/20 00:52:50;;;;;;;7.95;3.42;;;;;;;13.91;60.04;102260.47;5033702;28;20495;-88
2023/05/20 00:55:16;;;;;;;8.23;3.92;;;;;;;13.98;60.08;102268.59;4999809;28;20025;-87
2023/05/20 00:57:41;;;;;;;13.82;3.75;;;;;;;13.94;60.21;102268.50;5016116;28;20083;-87
2023/05/20 01:00:09;;;;;;;9.25;3.80;;;;;;;13.88;60.35;102261.31;5033537;28;20041;-87
2023/05/20 01:02:37;;;;;;;7.60;3.63;;;;;;;13.83;60.62;102262.94;5016112;28;20442;-87
2023/05/20 01:05:02;;;;;;;9.30;3.55;;;;;;;13.84;60.49;102263.88;5016041;28;20485;-87
2023/05/20 01:07:28;;;;;;;8.77;3.97;;;;;;;13.81;60.83;102267.34;5033298;28;20037;-88
2023/05/20 01:09:54;;;;;;;8.40;3.30;;;;;;;13.76;60.59;102255.75;4983742;28;20503;-88
2023/05/20 01:12:25;;;;;;;9.82;3.78;;;;;;;13.79;60.92;102261.13;5038035;28;20142;-88
2023/05/20 01:14:59;;;;;;;9.73;3.58;;;;;;;13.77;60.81;102257.53;5019585;28;20029;-87
2023/05/20 01:17:26;;;;;;;7.65;3.72;;;;;;;13.73;61.26;102268.97;5019273;28;20038;-87
2023/05/20 01:19:57;;;;;;;9.75;3.72;;;;;;;13.67;61.61;102263.53;5019381;28;20030;-87
2023/05/20 01:22:25;;;;;;;11.48;3.65;;;;;;;13.62;61.82;102260.78;5036984;28;20482;-87
2023/05/20 01:24:52;;;;;;;11.88;3.90;;;;;;;13.55;61.93;102256.19;5037053;28;20029;-87
2023/05/20 01:27:19;;;;;;;9.63;3.88;;;;;;;13.54;62.45;102257.06;5019556;28;20099;-87
2023/05/20 01:29:49;;;;;;;10.88;3.90;;;;;;;13.47;62.14;102248.06;5037054;28;20475;-87
2023/05/20 01:32:19;;;;;;;7.57;3.55;;;;;;;13.55;62.16;102250.00;5037207;28;20116;-87
2023/05/20 01:34:47;;;;;;;9.90;3.92;;;;;;;13.56;62.04;102257.97;5018885;28;20030;-87
2023/05/20 01:37:14;;;;;;;9.68;3.72;;;;;;;13.58;62.13;102263.34;5019123;28;20377;-86
2023/05/20 01:39:41;;;;;;;7.32;3.60;;;;;;;13.46;62.42;102243.63;5037340;28;20033;-86
2023/05/20 01:42:08;;;;;;;9.55;3.67;;;;;;;13.50;62.45;102242.81;5037596;28;20029;-86
2023/05/20 01:44:34;;;;;;;9.77;3.67;;;;;;;13.57;62.08;102243.81;5037228;28;20040;-86
2023/05/20 01:47:02;;;;;;;9.95;3.78;;;;;;;13.53;62.50;102244.63;5036410;28;20029;-86
2023/05/20 01:49:27;;;;;;;7.00;3.72;;;;;;;13.45;62.70;102255.13;5036438;28;20117;-86
2023/05/20 01:51:53;;;;;;;12.60;3.92;;;;;;;13.40;63.00;102240.81;5018787;28;20087;-87
2023/05/20 01:54:19;;;;;;;11.10;3.83;;;;;;;13.38;63.19;102250.53;5019125;28;20462;-87
2023/05/20 01:56:46;;;;;;;8.18;3.83;;;;;;;13.29;63.40;102234.41;5036562;28;20083;-87
2023/05/20 01:59:12;;;;;;;6.93;3.83;;;;;;;13.31;63.72;102245.94;5018800;28;20076;-87
2023/05/20 02:01:37;;;;;;;11.27;4.10;;;;;;;13.27;63.95;102237.03;4986455;28;20080;-86
2023/05/20 02:04:03;;;;;;;10.30;4.07;;;;;;;13.26;63.75;102239.63;5036391;28;20507;-86
2023/05/20 02:06:28;;;;;;;10.70;4.20;;;;;;;13.27;64.08;102237.03;5018813;28;20116;-87
2023/05/20 02:08:54;;;;;;;10.70;4.22;;;;;;;13.25;63.92;102241.41;5036586;28;20386;-86
2023/05/20 02:11:20;;;;;;;11.40;4.18;;;;;;;13.20;64.34;102240.38;5018744;28;20054;-87
2023/05/20 02:13:45;;;;;;;9.13;3.95;;;;;;;13.15;64.58;102241.13;5018678;28;20041;-87
2023/05/20 02:16:10;;;;;;;11.30;3.95;;;;;;;13.09;64.84;102228.59;5018495;28;20026;-86
2023/05/20 02:18:36;;;;;;;10.48;3.78;;;;;;;13.13;64.51;102240.19;5036386;28;20061;-87
2023/05/20 02:21:05;;;;;;;8.48;4.10;;;;;;;13.11;64.86;102237.50;5018400;28;20448;-86
2023/05/20 02:23:30;;;;;;;8.90;4.18;;;;;;;13.02;65.02;102237.31;5035906;28;20065;-87
2023/05/20 02:25:56;;;;;;;7.55;3.97;;;;;;;13.00;65.46;102236.34;5018307;28;20115;-87
2023/05/20 02:28:22;;;;;;;8.07;4.07;;;;;;;13.03;65.39;102236.44;5001801;28;20032;-87
2023/05/20 02:30:49;;;;;;;9.55;3.90;;;;;;;13.05;65.27;102226.75;5035688;28;20029;-87
2023/05/20 02:33:15;;;;;;;13.32;4.13;;;;;;;13.01;65.64;102233.72;5002112;28;20468;-87
2023/05/20 02:35:40;;;;;;;8.65;3.90;;;;;;;12.91;65.94;102228.19;5018077;28;20038;-87
2023/05/20 02:38:06;;;;;;;10.57;4.13;;;;;;;12.93;66.06;102229.09;5018258;28;20039;-87
2023/05/20 02:40:31;;;;;;;8.75;4.10;;;;;;;12.83;66.33;102220.03;5017969;28;20099;-88
2023/05/20 02:42:57;;;;;;;9.88;4.00;;;;;;;12.83;66.57;102238.63;5018169;28;20041;-88
2023/05/20 02:45:23;;;;;;;10.43;4.07;;;;;;;12.82;66.60;102234.19;5017858;28;20044;-87
2023/05/20 02:47:48;;;;;;;8.95;4.15;;;;;;;12.84;66.45;102242.16;5017631;28;20041;-87
2023/05/20 02:50:13;;;;;;;6.70;3.90;;;;;;;12.74;66.57;102226.03;5017781;28;20053;-87
2023/05/20 02:52:41;;;;;;;11.45;4.28;;;;;;;12.81;66.98;102231.50;4985192;28;20133;-87
2023/05/20 02:55:07;;;;;;;8.57;4.22;;;;;;;12.87;66.43;102224.56;5018436;28;20034;-87
2023/05/20 02:57:37;;;;;;;10.38;4.15;;;;;;;12.86;66.88;102229.84;5035518;28;20084;-87
2023/05/20 03:00:07;;;;;;;9.88;4.10;;;;;;;12.90;66.43;102232.59;5018343;28;20056;-88
2023/05/20 03:02:33;;;;;;;11.52;4.35;;;;;;;12.91;66.52;102229.09;5017485;28;20036;-87
2023/05/20 03:04:58;;;;;;;9.05;4.13;;;;;;;12.90;66.76;102232.59;5017438;28;20029;-88
2023/05/20 03:07:27;;;;;;;8.55;4.45;;;;;;;12.89;67.09;102229.88;5017423;28;20074;-87
2023/05/20 03:09:52;;;;;;;10.15;4.32;;;;;;;12.87;67.26;102221.91;5035109;28;20032;-87
2023/05/20 03:12:18;;;;;;;12.52;4.25;;;;;;;12.83;66.92;102205.88;4997383;28;20058;-87
2023/05/20 03:14:43;;;;;;;9.00;3.97;;;;;;;12.83;67.35;102224.47;4978467;28;20066;-87
2023/05/20 03:17:09;;;;;;;8.82;4.00;;;;;;;12.83;67.40;102228.00;4996215;28;20077;-87
2023/05/20 03:19:34;;;;;;;11.50;4.13;;;;;;;12.83;67.33;102225.34;4994597;28;20031;-87
2023/05/20 03:22:00;;;;;;;10.77;4.00;;;;;;;12.81;67.53;102220.88;4995546;28;20471;-89
2023/05/20 03:24:27;;;;;;;9.25;4.10;;;;;;;12.81;67.40;102229.75;4994085;28;20038;-88
2023/05/20 03:26:52;;;;;;;7.35;4.15;;;;;;;12.77;67.51;102223.47;4994940;28;20121;-87
2023/05/20 03:29:17;;;;;;;9.10;4.38;;;;;;;12.77;67.63;102233.19;4994087;28;20616;-87
2023/05/20 03:31:43;;;;;;;12.82;4.40;;;;;;;12.76;67.98;102226.06;4994465;28;20092;-87
2023/05/20 03:34:08;;;;;;;9.68;4.15;;;;;;;12.74;68.05;102228.69;4977116;28;20395;-88
2023/05/20 03:36:34;;;;;;;9.40;3.97;;;;;;;12.67;68.11;102221.44;4993873;28;20032;-88
2023/05/20 03:39:00;;;;;;;8.60;4.30;;;;;;;12.69;67.77;102232.09;4995267;28;20034;-88
2023/05/20 03:41:26;;;;;;;7.97;4.30;;;;;;;12.66;68.45;102224.94;4977731;28;20398;-88
2023/05/20 03:43:52;;;;;;;9.20;4.28;;;;;;;12.63;68.29;102226.63;4977847;28;20045;-87
2023/05/20 03:46:17;;;;;;;7.65;4.30;;;;;;;12.49;68.93;102220.97;4993865;28;20058;-88
2023/05/20 03:48:42;;;;;;;10.43;4.70;;;;;;;12.51;69.61;102228.13;4977674;28;20054;-88
2023/05/20 03:51:08;;;;;;;10.50;4.53;;;;;;;12.54;68.81;102227.28;4977255;28;20406;-88
2023/05/20 03:53:36;;;;;;;10.55;4.65;;;;;;;12.54;68.83;102219.34;4994327;28;20058;-88
2023/05/20 03:56:01;;;;;;;7.70;4.32;;;;;;;12.47;69.21;102226.25;4994984;28;20117;-88
2023/05/20 03:58:32;;;;;;;11.52;4.18;;;;;;;12.45;69.36;102214.69;4994663;28;20058;-88
2023/05/20 04:00:57;;;;;;;9.10;4.45;;;;;;;12.47;69.14;102222.72;4978169;28;20030;-88
2023/05/20 04:03:23;;;;;;;9.85;4.38;;;;;;;12.45;69.11;102211.16;4977579;28;20081;-87
2023/05/20 04:05:49;;;;;;;9.82;4.10;;;;;;;12.51;69.84;102221.94;4994201;28;20066;-88
2023/05/20 04:08:14;;;;;;;6.85;4.45;;;;;;;12.45;69.93;102219.13;4993630;28;20130;-88
2023/05/20 04:10:44;;;;;;;10.35;4.63;;;;;;;12.44;69.68;102214.69;4999554;28;20493;-88
2023/05/20 04:13:10;;;;;;;12.55;4.63;;;;;;;12.43;69.85;102224.38;5034062;28;20219;-88
2023/05/20 04:15:36;;;;;;;9.77;4.88;;;;;;;12.41;70.29;102218.13;5034518;28;20033;-87
2023/05/20 04:18:01;;;;;;;7.55;4.28;;;;;;;12.37;70.94;102226.88;5033944;28;20036;-87
2023/05/20 04:20:27;;;;;;;8.00;4.43;;;;;;;12.35;70.35;102225.94;5033886;28;20424;-88
2023/05/20 04:22:53;;;;;;;9.85;4.65;;;;;;;12.40;70.56;102226.06;5033886;28;20112;-88
2023/05/20 04:25:18;;;;;;;10.82;4.60;;;;;;;12.40;70.99;102231.38;5034110;28;20064;-88
2023/05/20 04:27:44;;;;;;;10.18;4.43;;;;;;;12.44;70.96;102231.47;5033552;28;20045;-88
2023/05/20 04:30:10;;;;;;;9.43;4.80;;;;;;;12.46;70.88;102228.84;5033786;28;20047;-88
2023/05/20 04:32:36;;;;;;;11.48;4.57;;;;;;;12.52;70.66;102232.56;5033631;28;20044;-88
2023/05/20 04:35:01;;;;;;;11.77;4.72;;;;;;;12.57;70.60;102226.47;5016012;28;20041;-88
2023/05/20 04:37:30;;;;;;;9.60;4.30;;;;;;;12.64;70.38;102234.63;5033601;28;20041;-88
2023/05/20 04:39:56;;;;;;;6.68;4.43;;;;;;;12.72;70.46;102233.06;5033591;28;20488;-88
2023/05/20 04:42:21;;;;;;;10.02;4.55;;;;;;;12.72;70.30;102222.47;5015912;28;20025;-88
2023/05/20 04:44:47;;;;;;;8.65;4.45;;;;;;;12.81;70.30;102232.38;5016342;28;20061;-89
2023/05/20 04:47:14;;;;;;;8.32;4.40;;;;;;;12.82;70.17;102227.97;5016238;28;20053;-89
2023/05/20 04:49:42;;;;;;;9.20;5.07;;;;;;;12.79;70.68;102216.41;5033691;28;20044;-91
2023/05/20 04:52:08;;;;;;;9.63;4.68;;;;;;;12.87;70.71;102231.63;5033648;28;20076;-88
2023/05/20 04:54:34;;;;;;;7.43;4.28;;;;;;;12.95;70.63;102240.66;5000195;28;20029;-89
2023/05/20 04:57:00;;;;;;;9.40;5.07;;;;;;;13.01;70.44;102239.03;5035546;28;20041;-89
2023/05/20 04:59:25;;;;;;;10.63;4.55;;;;;;;13.01;70.25;102235.50;5016831;28;20465;-89
2023/05/20 05:01:51;;;;;;;8.55;4.05;;;;;;;13.11;70.40;102229.56;5016701;28;20038;-88
2023/05/20 05:04:18;;;;;;;11.10;5.05;;;;;;;13.17;70.54;102236.75;5000669;28;20036;-88
2023/05/20 05:06:46;;;;;;;10.85;4.50;;;;;;;13.27;70.06;102230.78;5034530;28;20034;-88
2023/05/20 05:09:12;;;;;;;12.82;4.80;;;;;;;13.31;70.14;102234.41;5016680;28;20092;-89
2023/05/20 05:11:38;;;;;;;9.52;4.50;;;;;;;13.40;70.08;102226.66;4998673;28;20509;-89
2023/05/20 05:14:03;;;;;;;11.13;4.80;;;;;;;13.45;69.66;102217.03;5015836;28;20084;-89
2023/05/20 05:16:28;;;;;;;10.13;4.55;;;;;;;13.55;69.62;102213.72;5015741;28;20474;-89
2023/05/20 05:18:56;;;;;;;9.57;4.40;;;;;;;13.54;69.11;102193.34;5015824;28;20038;-89
2023/05/20 05:21:21;;;;;;;10.35;4.82;;;;;;;13.66;69.08;102198.91;5015747;28;20060;-89
2023/05/20 05:23:49;;;;;;;9.32;4.60;;;;;;;13.84;68.93;102205.44;5032815;28;20414;-89
2023/05/20 05:26:15;;;;;;;9.30;4.68;;;;;;;13.98;68.30;102194.16;5033701;28;20033;-89
2023/05/20 05:28:50;;;;;;;9.73;4.43;;;;;;;14.11;67.12;102199.72;5033447;28;20041;-89
2023/05/20 05:31:18;;;;;;;9.23;4.70;;;;;;;14.27;67.07;102202.66;4999224;28;20036;-90
2023/05/20 05:33:53;;;;;;;9.35;4.75;;;;;;;14.31;66.66;102192.09;5033685;28;20034;-89
2023/05/20 05:36:18;;;;;;;10.63;4.78;;;;;;;14.38;65.93;102202.84;5015867;28;20029;-89
2023/05/20 05:38:46;;;;;;;9.73;4.80;;;;;;;14.48;65.88;102187.94;5015286;28;20036;-89
2023/05/20 05:41:11;;;;;;;9.40;4.43;;;;;;;14.57;65.38;102201.44;5033168;28;20462;-89
2023/05/20 05:43:37;;;;;;;7.63;4.43;;;;;;;14.80;65.64;102215.09;5032931;28;20022;-89
2023/05/20 05:46:05;;;;;;;8.35;4.45;;;;;;;14.85;64.09;102204.50;4999108;28;20045;-89
2023/05/20 05:48:34;;;;;;;13.15;4.80;;;;;;;14.86;64.32;102190.31;5015943;28;20087;-89
2023/05/20 05:51:02;;;;;;;8.13;4.35;;;;;;;14.99;63.82;102187.00;4998154;28;20049;-90
2023/05/20 05:53:30;;;;;;;12.30;4.63;;;;;;;15.17;63.14;102189.88;5032822;28;20033;-89
2023/05/20 05:55:57;;;;;;;10.43;4.45;;;;;;;15.22;62.29;102196.16;5033261;28;20029;-89
2023/05/20 05:58:30;;;;;;;11.35;4.60;;;;;;;15.34;62.28;102211.41;5036211;28;20132;-90
2023/05/20 06:00:58;;;;;;;8.27;4.68;;;;;;;15.41;62.63;102199.94;5018786;28;20056;-89
2023/05/20 06:03:33;;;;;;;9.35;4.30;;;;;;;15.68;62.03;102195.88;5036440;28;20042;-90
2023/05/20 06:06:18;;;;;;;8.93;4.63;;;;;;;15.92;62.21;102197.91;5018709;28;20448;-89
2023/05/20 06:08:49;;;;;;;13.82;4.55;;;;;;;16.06;60.50;102196.28;5018715;28;20033;-90
2023/05/20 06:11:27;;;;;;;;;;;;;;;;;;;;;
2023/05/20 06:13:57;;;;;;;9.95;4.38;;;;;;;16.44;58.67;102193.94;5036876;28;20041;-90
2023/05/20 06:16:26;;;;;;;9.23;4.35;;;;;;;16.67;58.23;102207.47;5036513;28;20052;-89
2023/05/20 06:19:02;;;;;;;;;;;;;;;;;;;;;
2023/05/20 06:21:30;;;;;;;9.70;4.20;;;;;;;16.75;57.63;102179.09;5036720;28;20034;-89
2023/05/20 06:23:58;;;;;;;7.78;4.57;;;;;;;16.86;57.39;102183.59;5018231;28;20043;-89
2023/05/20 06:26:28;;;;;;;9.73;3.85;;;;;;;17.16;56.46;102178.44;5036558;28;20437;-90
2023/05/20 06:28:56;;;;;;;8.98;4.07;;;;;;;17.31;56.71;102177.63;5035707;28;20057;-89
2023/05/20 06:31:24;;;;;;;7.65;4.13;;;;;;;17.51;55.34;102185.69;5036196;28;20452;-91
2023/05/20 06:33:52;;;;;;;8.30;4.00;;;;;;;17.58;54.42;102181.28;5035848;28;20029;-90
2023/05/20 06:36:24;;;;;;;8.73;4.30;;;;;;;17.65;54.42;102175.06;5017950;28;20056;-90
2023/05/20 06:38:50;;;;;;;;;;;;;;;17.92;53.94;102175.16;5036208;28;20029;-89
2023/05/20 06:41:28;;;;;;;11.93;3.85;;;;;;;18.03;53.67;102169.84;5017883;28;20008;-89
2023/05/20 06:44:03;;;;;;;8.98;4.10;;;;;;;18.23;53.54;102173.38;5018630;28;20030;-90
2023/05/20 06:46:36;;;;;;;9.00;4.03;;;;;;;18.34;52.08;102173.41;5018850;28;20029;-89
2023/05/20 06:49:04;;;;;;;5.90;3.72;;;;;;;18.32;50.96;102160.91;5018129;28;20082;-89
2023/05/20 06:51:32;;;;;;;9.15;3.95;;;;;;;18.45;50.82;102165.34;5017768;28;20060;-89
2023/05/20 06:54:02;;;;;;;6.95;3.90;;;;;;;18.62;50.26;102171.59;5018021;28;20064;-89
2023/05/20 06:56:30;;;;;;;7.63;4.00;;;;;;;18.61;49.14;102153.75;5018909;28;20095;-90
2023/05/20 06:58:55;;;;;;;7.72;4.03;;;;;;;18.74;49.59;102155.53;5035508;28;20461;-89
2023/05/20 07:01:23;;;;;;;8.07;3.60;;;;;;;18.90;48.84;102152.84;5001267;28;20044;-89
2023/05/20 07:03:51;;;;;;;10.27;4.25;;;;;;;19.13;49.34;102164.34;5018381;28;20040;-89
2023/05/20 07:06:18;;;;;;;8.40;3.80;;;;;;;19.31;48.11;102157.13;5035048;28;20033;-89
2023/05/20 07:08:44;;;;;;;7.43;3.83;;;;;;;19.47;47.01;102145.44;5034417;28;20033;-89
2023/05/20 07:11:09;;;;;;;7.80;3.67;;;;;;;19.60;46.30;102152.53;5035308;28;20498;-89
2023/05/20 07:13:37;;;;;;;9.77;3.75;;;;;;;19.76;46.32;102153.38;5016905;28;20041;-90
2023/05/20 07:16:13;;;;;;;;;;;;;;;;;;;;;
2023/05/20 07:18:41;;;;;;;6.72;3.78;;;;;;;20.04;46.12;102166.56;5019821;28;20047;-89
2023/05/20 07:21:10;;;;;;;6.28;3.58;;;;;;;20.16;45.39;102158.44;5035107;28;20037;-89
2023/05/20 07:23:38;;;;;;;7.15;3.58;;;;;;;20.45;44.77;102153.72;5022004;28;20068;-88
2023/05/20 07:26:03;;;;;;;10.82;3.83;;;;;;;20.38;44.03;102148.41;5049181;28;20041;-89
2023/05/20 07:28:35;;;;;;;5.80;3.80;;;;;;;20.31;44.07;102144.00;5021998;28;20392;-90
2023/05/20 07:31:06;;;;;;;6.35;3.40;;;;;;;20.33;44.14;102140.38;5024244;28;20029;-89
2023/05/20 07:33:41;;;;;;;9.05;3.60;;;;;;;20.24;43.72;102141.34;5004663;28;20124;-89
2023/05/20 07:36:06;;;;;;;5.55;3.67;;;;;;;20.39;44.11;102148.41;5017504;28;20033;-89
2023/05/20 07:38:42;;;;;;;;;;;;;;;;;;;;;
2023/05/20 07:41:12;;;;;;;6.97;3.70;;;;;;;20.28;43.98;102139.53;5035308;28;20029;-88
2023/05/20 07:43:38;;;;;;;5.53;3.75;;;;;;;20.32;43.60;102135.03;5017371;28;20025;-89
2023/05/20 07:46:03;;;;;;;11.52;3.80;;;;;;;20.36;43.24;102129.63;5017291;28;20022;-90
2023/05/20 07:48:29;;;;;;;8.52;3.78;;;;;;;20.40;43.20;102142.13;5016888;28;20037;-91
2023/05/20 07:50:58;;;;;;;8.23;3.70;;;;;;;20.59;44.21;102126.75;5016699;28;20025;-90
2023/05/20 07:53:28;;;;;;;7.05;3.72;;;;;;;20.75;42.69;102124.78;5016666;28;20029;-90
2023/05/20 07:55:58;;;;;;;9.23;3.45;;;;;;;21.05;42.41;102133.41;5017101;28;20036;-91
2023/05/20 07:58:24;;;;;;;12.43;3.63;;;;;;;21.07;41.62;102120.81;5016925;28;20421;-92
2023/05/20 08:00:50;;;;;;;11.07;3.67;;;;;;;21.10;41.60;102119.00;5000781;28;20064;-90
2023/05/20 08:03:17;;;;;;;9.40;3.58;;;;;;;21.13;41.05;102110.91;5017152;28;20028;-89
2023/05/20 08:05:50;;;;;;;6.60;3.50;;;;;;;21.27;41.86;102113.41;5016366;28;20033;-90
2023/05/20 08:08:18;;;;;;;8.00;3.60;;;;;;;21.53;41.98;102105.00;5000720;28;20115;-91
2023/05/20 08:10:48;;;;;;;8.05;3.60;;;;;;;21.69;40.32;102106.56;5016643;28;20038;-91
2023/05/20 08:13:16;;;;;;;7.68;3.53;;;;;;;21.77;40.07;102105.56;5016018;28;20049;-89
2023/05/20 08:15:54;;;;;;;;;;;;;;;;;;;;;
2023/05/20 08:18:23;;;;;;;6.97;3.38;;;;;;;21.96;40.46;102110.59;5034378;28;20475;-88
2023/05/20 08:21:05;;;;;;;6.35;3.70;;;;;;;22.04;40.18;102113.16;5033515;28;20033;-89
2023/05/20 08:23:34;;;;;;;6.10;3.50;;;;;;;22.13;39.29;102107.66;5016903;28;20136;-89
2023/05/20 08:26:30;;;;;;;13.25;4.80;;;;;;;22.12;38.22;102111.28;5034516;28;20029;-89
2023/05/20 08:28:55;;;;;;;11.15;3.70;;;;;;;22.11;38.02;102106.78;5018252;28;20434;-88
2023/05/20 08:31:21;;;;;;;7.07;3.78;;;;;;;22.21;38.63;102104.84;5015559;28;20025;-87
2023/05/20 08:33:49;;;;;;;8.82;3.50;;;;;;;22.30;37.67;102098.41;5033279;28;20041;-87
2023/05/20 08:36:24;;;;;;;12.43;3.75;;;;;;;22.08;38.22;102103.25;5015906;28;20461;-89
2023/05/20 08:38:56;;;;;;;12.95;3.75;;;;;;;22.18;37.48;102097.72;5015450;28;20545;-88
2023/05/20 08:41:24;;;;;;;7.45;3.67;;;;;;;22.34;37.90;102100.13;5033361;28;20378;-89
2023/05/20 08:43:56;;;;;;;9.50;3.85;;;;;;;22.31;37.81;102094.78;5015441;28;20374;-89
2023/05/20 08:46:29;;;;;;;7.38;3.63;;;;;;;22.62;37.71;102089.75;5015362;28;20044;-89
2023/05/20 08:48:58;;;;;;;7.28;3.83;;;;;;;22.80;38.17;102081.28;5015303;28;20038;-89
2023/05/20 08:51:26;;;;;;;7.75;3.65;;;;;;;22.93;37.08;102080.13;5015461;28;20462;-89
2023/05/20 08:53:52;;;;;;;10.68;3.88;;;;;;;23.08;36.63;102087.00;5015554;28;20037;-89
2023/05/20 08:56:26;;;;;;;10.35;3.88;;;;;;;22.82;36.68;102082.13;5015666;28;20385;-89
2023/05/20 08:59:00;;;;;;;8.82;3.47;;;;;;;22.93;36.36;102082.84;5016310;28;20041;-88
2023/05/20 09:01:43;;;;;;;;;;;;;;;;;;;;;
2023/05/20 09:04:13;;;;;;;10.55;3.78;;;;;;;23.10;36.57;102073.50;5033570;28;20037;-90
2023/05/20 09:06:45;;;;;;;11.65;3.63;;;;;;;23.16;36.82;102062.56;5033301;28;20052;-88
2023/05/20 09:09:19;;;;;;;8.73;3.50;;;;;;;23.32;35.68;102074.78;5015484;28;20034;-89
2023/05/20 09:11:47;;;;;;;5.55;3.00;;;;;;;23.50;34.22;102068.06;5032909;28;20108;-89
2023/05/20 09:14:32;;;;;;;;;;;;;;;;;;;;;
2023/05/20 09:17:00;;;;;;;7.80;3.40;;;;;;;23.58;35.28;102082.28;5033969;28;20042;-89
2023/05/20 09:19:36;;;;;;;;;;;;;;;;;;;;;
2023/05/20 09:22:38;;;;;;;16.17;3.88;;;;;;;23.85;35.77;102064.53;5033653;28;20026;-89
2023/05/20 09:25:11;;;;;;;6.53;3.57;;;;;;;24.03;34.25;102078.53;5016516;28;20116;-88
2023/05/20 09:27:43;;;;;;;9.45;3.70;;;;;;;24.04;35.17;102066.81;5016635;28;20300;-89
2023/05/20 09:30:11;;;;;;;6.07;3.28;;;;;;;24.26;33.92;102077.91;5001330;28;20587;-89
2023/05/20 09:32:43;;;;;;;5.25;3.40;;;;;;;24.32;34.78;102062.41;5036529;28;20483;-88
2023/05/20 09:35:30;;;;;;;6.35;3.63;;;;;;;24.55;33.81;102069.06;5003459;28;20412;-89
2023/05/20 09:38:15;;;;;;;8.00;3.50;;;;;;;24.28;33.99;102060.72;5019662;28;20049;-89
2023/05/20 09:40:56;;;;;;;;;;;;;;;;;;;;;
2023/05/20 09:43:44;;;;;;;10.40;3.67;;;;;;;23.78;34.73;102073.75;5037722;28;20454;-89
2023/05/20 09:46:39;;;;;;;4.60;3.40;;;;;;;23.58;34.92;102051.72;5019087;28;20061;-89
2023/05/20 09:49:10;;;;;;;5.88;3.85;;;;;;;23.50;34.93;102054.59;5018798;28;20029;-90
2023/05/20 09:51:55;;;;;;;6.97;3.38;;;;;;;23.63;35.55;102057.88;5037026;28;20135;-89
2023/05/20 09:54:41;;;;;;;9.45;3.67;;;;;;;23.78;35.88;102067.47;5019691;28;20060;-88
2023/05/20 09:57:12;;;;;;;7.35;3.75;;;;;;;23.81;35.18;102056.56;5019509;28;20129;-88
2023/05/20 09:59:41;;;;;;;8.40;3.43;;;;;;;24.02;35.49;102045.22;5019620;28;20143;-90
2023/05/20 10:02:19;;;;;;;8.95;3.58;;;;;;;24.31;34.35;102033.63;5019304;28;20288;-89
2023/05/20 10:05:00;;;;;;;;;;;;;;;;;;;;;
2023/05/20 10:07:46;;;;;;;6.30;3.50;;;;;;;24.43;33.75;102043.25;5037415;28;20030;-88
2023/05/20 10:10:49;;;;;;;;;;;;;;;;;;;;;
2023/05/20 10:13:40;;;;;;;5.80;3.30;;;;;;;24.36;33.89;102045.19;5036015;28;20049;-88
2023/05/20 10:16:53;;;;;;;4.75;3.20;;;;;;;24.31;33.84;102041.75;5018368;28;20110;-89
2023/05/20 10:19:33;;;;;;;7.22;3.58;;;;;;;24.14;34.25;102022.41;4942822;29;20040;-88
2023/05/20 10:22:26;;;;;;;7.57;3.53;;;;;;;24.26;33.77;102026.59;5023991;28;20061;-88
2023/05/20 10:25:06;;;;;;;12.18;3.42;;;;;;;24.51;33.81;102029.53;5029578;28;20029;-88
2023/05/20 10:27:45;;;;;;;4.78;3.00;;;;;;;24.73;32.50;102014.47;5028450;28;20041;-88
2023/05/20 10:30:18;;;;;;;11.77;3.30;;;;;;;24.91;32.53;102018.44;5037662;28;20056;-88
2023/05/20 10:32:55;;;;;;;9.60;3.13;;;;;;;25.17;32.64;102015.81;5036177;28;20033;-88
2023/05/20 10:35:26;;;;;;;8.45;3.70;;;;;;;24.66;32.57;102005.63;5017959;28;20030;-88
2023/05/20 10:38:08;;;;;;;10.45;2.90;;;;;;;24.59;33.33;102008.59;5002084;28;20128;-88
2023/05/20 10:40:52;;;;;;;7.38;3.13;;;;;;;24.81;32.42;102014.25;5036318;28;20116;-89
2023/05/20 10:43:30;;;;;;;5.50;2.90;;;;;;;24.47;32.47;102004.41;5035252;28;20026;-86
2023/05/20 10:46:04;;;;;;;7.15;3.10;;;;;;;24.51;33.04;102006.09;5018003;28;20037;-86
2023/05/20 10:48:33;;;;;;;7.88;3.30;;;;;;;24.73;32.92;101996.41;5019276;28;20041;-86
2023/05/20 10:51:08;;;;;;;8.45;3.40;;;;;;;24.76;32.70;101991.88;5035253;28;20025;-86
2023/05/20 10:53:51;;;;;;;9.18;3.22;;;;;;;25.04;33.40;101997.31;5036005;28;20033;-89
2023/05/20 10:56:24;;;;;;;7.05;3.47;;;;;;;25.06;31.84;102006.28;5017539;28;20025;-88
2023/05/20 10:58:53;;;;;;;5.88;3.30;;;;;;;25.30;31.63;101993.81;5035949;28;20052;-88
2023/05/20 11:01:25;;;;;;;5.45;3.10;;;;;;;25.28;31.94;102020.91;5017501;28;20029;-87
2023/05/20 11:03:56;;;;;;;8.48;3.28;;;;;;;25.27;32.15;102008.31;5035254;28;20124;-88
2023/05/20 11:06:27;;;;;;;4.95;3.22;;;;;;;25.20;32.35;101991.41;5034992;28;20044;-85
2023/05/20 11:09:06;;;;;;;6.43;2.77;;;;;;;25.52;32.19;101986.75;5017428;28;20087;-90
2023/05/20 11:11:36;;;;;;;6.95;3.03;;;;;;;25.67;31.76;101972.69;5017606;28;20302;-86
2023/05/20 11:14:07;;;;;;;9.23;2.80;;;;;;;25.98;31.36;101975.25;4997703;28;20059;-89
2023/05/20 11:16:47;;;;;;;8.07;3.05;;;;;;;25.76;30.74;101978.72;4994386;28;20043;-88
2023/05/20 11:19:18;;;;;;;7.03;3.15;;;;;;;26.12;31.18;101977.47;4979210;28;20104;-88
2023/05/20 11:21:51;;;;;;;7.80;3.00;;;;;;;26.04;30.78;101966.03;4995086;28;20061;-90
2023/05/20 11:24:34;;;;;;;7.15;3.10;;;;;;;26.23;31.75;101977.06;4995055;28;20044;-89
2023/05/20 11:27:13;;;;;;;;;;;;;;;;;;;;;
2023/05/20 11:29:44;;;;;;;4.45;3.00;;;;;;;26.30;31.09;101969.63;4996194;28;20064;-88
2023/05/20 11:32:19;;;;;;;5.60;2.90;;;;;;;26.28;30.73;101975.06;4996088;28;20044;-89
2023/05/20 11:34:52;;;;;;;5.82;3.00;;;;;;;26.33;31.59;101966.78;4994624;28;20030;-90
2023/05/20 11:37:18;;;;;;;9.45;3.05;;;;;;;26.53;30.38;101966.94;4994135;28;20037;-88
2023/05/20 11:40:01;;;;;;;5.47;2.90;;;;;;;26.77;30.30;101956.09;4994766;28;20475;-88
2023/05/20 11:42:38;;;;;;;8.80;3.50;;;;;;;26.87;29.90;101965.63;4994058;28;20042;-90
2023/05/20 11:45:14;;;;;;;4.13;3.00;;;;;;;26.93;30.26;101968.09;4994403;28;20044;-88
2023/05/20 11:47:43;;;;;;;7.10;3.15;;;;;;;26.82;30.14;101956.81;4993997;28;20049;-89
2023/05/20 11:50:18;;;;;;;7.30;3.20;;;;;;;26.53;29.96;101963.34;4995297;28;20046;-89
2023/05/20 11:52:46;;;;;;;5.03;2.90;;;;;;;26.17;30.93;101956.50;4994286;28;20478;-88